sensor_id;sensor_type;location;lat;lon;timestamp;P1;durP1;ratioP1;P2;durP2;ratioP2
21326;SDS011;10822;51.532;6.770;2023-03-01T00:02:11;8.07;;;5.18;;
21326;SDS011;10822;51.532;6.770;2023-03-01T00:04:37;7.07;;;4.95;;
21326;SDS011;10822;51.532;6.770;2023-03-01T00:07:03;6.70;;;4.88;;
21326;SDS011;10822;51.532;6.770;2023-03-01T00:09:29;6.55;;;4.78;;
21326;SDS011;10822;51.532;6.770;2023-03-01T00:11:55;9.27;;;4.65;;
21326;SDS011;10822;51.532;6.770;2023-03-01T00:14:21;8.98;;;4.75;;
21326;SDS011;10822;51.532;6.770;2023-03-01T00:16:47;9.80;;;5.25;;
21326;SDS011;10822;51.532;6.770;2023-03-01T00:19:14;9.07;;;5.53;;
21326;SDS011;10822;51.532;6.770;2023-03-01T00:21:41;7.75;;;5.10;;
21326;SDS011;10822;51.532;6.770;2023-03-01T00:24:07;9.13;;;5.43;;
21326;SDS011;10822;51.532;6.770;2023-03-01T00:26:33;9.00;;;5.18;;
21326;SDS011;10822;51.532;6.770;2023-03-01T00:28:59;10.25;;;5.68;;
21326;SDS011;10822;51.532;6.770;2023-03-01T00:31:26;9.32;;;5.75;;
21326;SDS011;10822;51.532;6.770;2023-03-01T00:33:54;10.55;;;5.43;;
21326;SDS011;10822;51.532;6.770;2023-03-01T00:36:25;9.80;;;5.57;;
21326;SDS011;10822;51.532;6.770;2023-03-01T00:38:51;8.65;;;5.05;;
21326;SDS011;10822;51.532;6.770;2023-03-01T00:41:18;9.18;;;4.80;;
21326;SDS011;10822;51.532;6.770;2023-03-01T00:43:44;14.80;;;5.10;;
21326;SDS011;10822;51.532;6.770;2023-03-01T00:46:12;9.55;;;5.15;;
21326;SDS011;10822;51.532;6.770;2023-03-01T00:48:38;6.88;;;4.85;;
21326;SDS011;10822;51.532;6.770;2023-03-01T00:51:12;6.95;;;4.70;;
21326;SDS011;10822;51.532;6.770;2023-03-01T00:53:38;8.18;;;5.05;;
21326;SDS011;10822;51.532;6.770;2023-03-01T00:56:04;9.23;;;5.03;;
21326;SDS011;10822;51.532;6.770;2023-03-01T00:58:31;6.90;;;4.90;;
21326;SDS011;10822;51.532;6.770;2023-03-01T01:00:56;6.78;;;4.60;;
21326;SDS011;10822;51.532;6.770;2023-03-01T01:03:23;8.23;;;5.10;;
21326;SDS011;10822;51.532;6.770;2023-03-01T01:05:50;7.68;;;5.10;;
21326;SDS011;10822;51.532;6.770;2023-03-01T01:08:16;7.15;;;5.07;;
21326;SDS011;10822;51.532;6.770;2023-03-01T01:10:43;7.03;;;4.60;;
21326;SDS011;10822;51.532;6.770;2023-03-01T01:13:09;8.70;;;4.75;;
21326;SDS011;10822;51.532;6.770;2023-03-01T01:15:35;7.15;;;4.28;;
21326;SDS011;10822;51.532;6.770;2023-03-01T01:18:01;10.07;;;5.55;;
21326;SDS011;10822;51.532;6.770;2023-03-01T01:20:27;7.55;;;4.80;;
21326;SDS011;10822;51.532;6.770;2023-03-01T01:22:53;8.82;;;5.50;;
21326;SDS011;10822;51.532;6.770;2023-03-01T01:25:19;11.65;;;6.63;;
21326;SDS011;10822;51.532;6.770;2023-03-01T01:27:45;14.05;;;5.65;;
21326;SDS011;10822;51.532;6.770;2023-03-01T01:30:11;8.23;;;5.22;;
21326;SDS011;10822;51.532;6.770;2023-03-01T01:32:38;8.63;;;5.22;;
21326;SDS011;10822;51.532;6.770;2023-03-01T01:35:04;9.52;;;5.53;;
21326;SDS011;10822;51.532;6.770;2023-03-01T01:37:30;14.38;;;7.72;;
21326;SDS011;10822;51.532;6.770;2023-03-01T01:39:59;11.95;;;6.25;;
21326;SDS011;10822;51.532;6.770;2023-03-01T01:42:25;13.20;;;6.00;;
21326;SDS011;10822;51.532;6.770;2023-03-01T01:47:36;8.43;;;5.32;;
21326;SDS011;10822;51.532;6.770;2023-03-01T01:50:02;8.00;;;5.47;;
21326;SDS011;10822;51.532;6.770;2023-03-01T01:52:33;8.52;;;5.50;;
21326;SDS011;10822;51.532;6.770;2023-03-01T01:57:41;8.98;;;5.72;;
21326;SDS011;10822;51.532;6.770;2023-03-01T02:00:11;8.90;;;5.30;;
21326;SDS011;10822;51.532;6.770;2023-03-01T02:02:38;10.05;;;5.75;;
21326;SDS011;10822;51.532;6.770;2023-03-01T02:05:26;9.05;;;5.43;;
21326;SDS011;10822;51.532;6.770;2023-03-01T02:07:50;7.80;;;5.13;;
21326;SDS011;10822;51.532;6.770;2023-03-01T02:10:17;8.98;;;5.35;;
21326;SDS011;10822;51.532;6.770;2023-03-01T02:12:43;11.07;;;5.20;;
21326;SDS011;10822;51.532;6.770;2023-03-01T02:15:09;8.13;;;5.20;;
21326;SDS011;10822;51.532;6.770;2023-03-01T02:17:35;10.23;;;5.72;;
21326;SDS011;10822;51.532;6.770;2023-03-01T02:20:22;11.55;;;7.13;;
21326;SDS011;10822;51.532;6.770;2023-03-01T02:22:49;13.27;;;6.95;;
21326;SDS011;10822;51.532;6.770;2023-03-01T02:27:53;9.23;;;5.53;;
21326;SDS011;10822;51.532;6.770;2023-03-01T02:30:22;8.68;;;5.90;;
21326;SDS011;10822;51.532;6.770;2023-03-01T02:32:48;7.90;;;5.38;;
21326;SDS011;10822;51.532;6.770;2023-03-01T02:35:15;12.55;;;5.68;;
21326;SDS011;10822;51.532;6.770;2023-03-01T02:37:42;8.73;;;5.90;;
21326;SDS011;10822;51.532;6.770;2023-03-01T02:40:10;8.27;;;5.30;;
21326;SDS011;10822;51.532;6.770;2023-03-01T02:42:42;10.60;;;6.13;;
21326;SDS011;10822;51.532;6.770;2023-03-01T02:45:11;9.98;;;5.88;;
21326;SDS011;10822;51.532;6.770;2023-03-01T02:47:37;7.95;;;6.03;;
21326;SDS011;10822;51.532;6.770;2023-03-01T02:50:09;9.40;;;5.45;;
21326;SDS011;10822;51.532;6.770;2023-03-01T02:55:10;11.10;;;6.28;;
21326;SDS011;10822;51.532;6.770;2023-03-01T02:57:37;9.70;;;6.30;;
21326;SDS011;10822;51.532;6.770;2023-03-01T03:00:08;11.35;;;6.47;;
21326;SDS011;10822;51.532;6.770;2023-03-01T03:02:35;10.75;;;5.95;;
21326;SDS011;10822;51.532;6.770;2023-03-01T03:05:05;11.90;;;5.97;;
21326;SDS011;10822;51.532;6.770;2023-03-01T03:07:33;8.27;;;5.20;;
21326;SDS011;10822;51.532;6.770;2023-03-01T03:09:59;8.23;;;5.35;;
21326;SDS011;10822;51.532;6.770;2023-03-01T03:12:26;11.30;;;5.80;;
21326;SDS011;10822;51.532;6.770;2023-03-01T03:14:51;11.32;;;5.47;;
21326;SDS011;10822;51.532;6.770;2023-03-01T03:17:17;7.97;;;5.47;;
21326;SDS011;10822;51.532;6.770;2023-03-01T03:19:43;9.23;;;5.90;;
21326;SDS011;10822;51.532;6.770;2023-03-01T03:22:10;11.57;;;5.60;;
21326;SDS011;10822;51.532;6.770;2023-03-01T03:24:36;10.02;;;5.78;;
21326;SDS011;10822;51.532;6.770;2023-03-01T03:27:03;8.95;;;5.82;;
21326;SDS011;10822;51.532;6.770;2023-03-01T03:29:29;9.02;;;6.10;;
21326;SDS011;10822;51.532;6.770;2023-03-01T03:31:54;14.20;;;6.72;;
21326;SDS011;10822;51.532;6.770;2023-03-01T03:34:20;11.45;;;6.20;;
21326;SDS011;10822;51.532;6.770;2023-03-01T03:36:46;8.45;;;5.85;;
21326;SDS011;10822;51.532;6.770;2023-03-01T03:39:12;11.68;;;6.15;;
21326;SDS011;10822;51.532;6.770;2023-03-01T03:41:38;7.90;;;5.72;;
21326;SDS011;10822;51.532;6.770;2023-03-01T03:44:04;10.00;;;5.63;;
21326;SDS011;10822;51.532;6.770;2023-03-01T03:46:30;9.95;;;5.50;;
21326;SDS011;10822;51.532;6.770;2023-03-01T03:48:56;7.70;;;5.68;;
21326;SDS011;10822;51.532;6.770;2023-03-01T03:51:22;8.73;;;5.82;;
21326;SDS011;10822;51.532;6.770;2023-03-01T03:53:48;11.20;;;6.22;;
21326;SDS011;10822;51.532;6.770;2023-03-01T03:56:14;8.38;;;5.82;;
21326;SDS011;10822;51.532;6.770;2023-03-01T03:58:40;10.07;;;6.20;;
21326;SDS011;10822;51.532;6.770;2023-03-01T04:01:06;10.35;;;5.93;;
21326;SDS011;10822;51.532;6.770;2023-03-01T04:03:32;9.48;;;5.97;;
21326;SDS011;10822;51.532;6.770;2023-03-01T04:06:00;10.18;;;6.10;;
21326;SDS011;10822;51.532;6.770;2023-03-01T04:08:26;9.20;;;5.88;;
21326;SDS011;10822;51.532;6.770;2023-03-01T04:10:56;11.93;;;6.20;;
21326;SDS011;10822;51.532;6.770;2023-03-01T04:13:23;11.70;;;5.97;;
21326;SDS011;10822;51.532;6.770;2023-03-01T04:15:53;10.10;;;6.43;;
21326;SDS011;10822;51.532;6.770;2023-03-01T04:18:20;10.73;;;6.47;;
21326;SDS011;10822;51.532;6.770;2023-03-01T04:20:46;10.57;;;7.00;;
21326;SDS011;10822;51.532;6.770;2023-03-01T04:23:13;11.00;;;6.15;;
21326;SDS011;10822;51.532;6.770;2023-03-01T04:25:42;12.23;;;6.85;;
21326;SDS011;10822;51.532;6.770;2023-03-01T04:28:08;11.63;;;6.85;;
21326;SDS011;10822;51.532;6.770;2023-03-01T04:30:34;10.90;;;6.30;;
21326;SDS011;10822;51.532;6.770;2023-03-01T04:33:10;11.27;;;6.65;;
21326;SDS011;10822;51.532;6.770;2023-03-01T04:35:36;11.85;;;6.72;;
21326;SDS011;10822;51.532;6.770;2023-03-01T04:38:03;13.77;;;6.50;;
21326;SDS011;10822;51.532;6.770;2023-03-01T04:40:29;10.05;;;6.50;;
21326;SDS011;10822;51.532;6.770;2023-03-01T04:42:55;10.15;;;6.65;;
21326;SDS011;10822;51.532;6.770;2023-03-01T04:45:21;11.70;;;6.60;;
21326;SDS011;10822;51.532;6.770;2023-03-01T04:47:47;10.38;;;6.80;;
21326;SDS011;10822;51.532;6.770;2023-03-01T04:50:15;10.88;;;6.30;;
21326;SDS011;10822;51.532;6.770;2023-03-01T04:52:42;11.40;;;6.43;;
21326;SDS011;10822;51.532;6.770;2023-03-01T04:55:08;11.40;;;6.30;;
21326;SDS011;10822;51.532;6.770;2023-03-01T04:57:34;12.45;;;6.53;;
21326;SDS011;10822;51.532;6.770;2023-03-01T05:00:00;9.23;;;6.15;;
21326;SDS011;10822;51.532;6.770;2023-03-01T05:02:31;9.93;;;6.32;;
21326;SDS011;10822;51.532;6.770;2023-03-01T05:04:57;10.57;;;6.15;;
21326;SDS011;10822;51.532;6.770;2023-03-01T05:07:23;11.38;;;6.18;;
21326;SDS011;10822;51.532;6.770;2023-03-01T05:09:49;9.77;;;6.85;;
21326;SDS011;10822;51.532;6.770;2023-03-01T05:12:15;9.80;;;5.65;;
21326;SDS011;10822;51.532;6.770;2023-03-01T05:14:41;13.00;;;6.63;;
21326;SDS011;10822;51.532;6.770;2023-03-01T05:17:07;8.57;;;5.90;;
21326;SDS011;10822;51.532;6.770;2023-03-01T05:19:34;11.27;;;6.18;;
21326;SDS011;10822;51.532;6.770;2023-03-01T05:22:00;11.05;;;6.55;;
21326;SDS011;10822;51.532;6.770;2023-03-01T05:24:29;11.73;;;5.90;;
21326;SDS011;10822;51.532;6.770;2023-03-01T05:26:56;10.63;;;6.20;;
21326;SDS011;10822;51.532;6.770;2023-03-01T05:29:22;10.90;;;5.78;;
21326;SDS011;10822;51.532;6.770;2023-03-01T05:31:52;9.93;;;6.35;;
21326;SDS011;10822;51.532;6.770;2023-03-01T05:34:19;12.15;;;6.93;;
21326;SDS011;10822;51.532;6.770;2023-03-01T05:36:47;10.38;;;6.00;;
21326;SDS011;10822;51.532;6.770;2023-03-01T05:39:13;9.88;;;6.78;;
21326;SDS011;10822;51.532;6.770;2023-03-01T05:41:39;10.88;;;6.20;;
21326;SDS011;10822;51.532;6.770;2023-03-01T05:44:06;12.70;;;6.50;;
21326;SDS011;10822;51.532;6.770;2023-03-01T05:46:32;10.05;;;6.40;;
21326;SDS011;10822;51.532;6.770;2023-03-01T05:48:57;11.63;;;6.57;;
21326;SDS011;10822;51.532;6.770;2023-03-01T05:51:25;12.35;;;7.07;;
21326;SDS011;10822;51.532;6.770;2023-03-01T05:53:51;10.18;;;6.63;;
21326;SDS011;10822;51.532;6.770;2023-03-01T05:56:17;11.88;;;6.82;;
21326;SDS011;10822;51.532;6.770;2023-03-01T05:58:43;10.00;;;6.85;;
21326;SDS011;10822;51.532;6.770;2023-03-01T06:01:12;12.63;;;6.78;;
21326;SDS011;10822;51.532;6.770;2023-03-01T06:03:38;10.73;;;6.80;;
21326;SDS011;10822;51.532;6.770;2023-03-01T06:06:04;10.88;;;6.65;;
21326;SDS011;10822;51.532;6.770;2023-03-01T06:08:30;10.55;;;6.53;;
21326;SDS011;10822;51.532;6.770;2023-03-01T06:10:56;10.85;;;7.13;;
21326;SDS011;10822;51.532;6.770;2023-03-01T06:13:22;13.05;;;6.68;;
21326;SDS011;10822;51.532;6.770;2023-03-01T06:15:48;11.15;;;7.00;;
21326;SDS011;10822;51.532;6.770;2023-03-01T06:18:14;11.95;;;7.60;;
21326;SDS011;10822;51.532;6.770;2023-03-01T06:20:40;11.30;;;7.45;;
21326;SDS011;10822;51.532;6.770;2023-03-01T06:23:06;10.48;;;6.68;;
21326;SDS011;10822;51.532;6.770;2023-03-01T06:25:32;10.38;;;6.97;;
21326;SDS011;10822;51.532;6.770;2023-03-01T06:27:58;11.63;;;7.03;;
21326;SDS011;10822;51.532;6.770;2023-03-01T06:30:25;12.52;;;7.30;;
21326;SDS011;10822;51.532;6.770;2023-03-01T06:32:52;11.90;;;7.22;;
21326;SDS011;10822;51.532;6.770;2023-03-01T06:35:26;12.27;;;7.10;;
21326;SDS011;10822;51.532;6.770;2023-03-01T06:37:54;23.10;;;7.50;;
21326;SDS011;10822;51.532;6.770;2023-03-01T06:40:20;11.88;;;7.03;;
21326;SDS011;10822;51.532;6.770;2023-03-01T06:42:47;11.48;;;7.10;;
21326;SDS011;10822;51.532;6.770;2023-03-01T06:45:14;14.80;;;6.63;;
21326;SDS011;10822;51.532;6.770;2023-03-01T06:47:40;12.88;;;7.70;;
21326;SDS011;10822;51.532;6.770;2023-03-01T06:50:06;12.30;;;7.60;;
21326;SDS011;10822;51.532;6.770;2023-03-01T06:52:32;11.20;;;7.45;;
21326;SDS011;10822;51.532;6.770;2023-03-01T06:54:58;14.52;;;7.60;;
21326;SDS011;10822;51.532;6.770;2023-03-01T06:57:24;11.98;;;7.20;;
21326;SDS011;10822;51.532;6.770;2023-03-01T06:59:50;12.15;;;7.22;;
21326;SDS011;10822;51.532;6.770;2023-03-01T07:02:16;14.88;;;8.02;;
21326;SDS011;10822;51.532;6.770;2023-03-01T07:04:42;12.55;;;7.70;;
21326;SDS011;10822;51.532;6.770;2023-03-01T07:07:08;11.30;;;7.25;;
21326;SDS011;10822;51.532;6.770;2023-03-01T07:09:34;11.77;;;6.80;;
21326;SDS011;10822;51.532;6.770;2023-03-01T07:12:00;11.80;;;7.45;;
21326;SDS011;10822;51.532;6.770;2023-03-01T07:14:26;14.80;;;8.00;;
21326;SDS011;10822;51.532;6.770;2023-03-01T07:16:52;12.05;;;7.10;;
21326;SDS011;10822;51.532;6.770;2023-03-01T07:19:18;13.73;;;7.47;;
21326;SDS011;10822;51.532;6.770;2023-03-01T07:21:45;9.77;;;6.72;;
21326;SDS011;10822;51.532;6.770;2023-03-01T07:24:11;11.10;;;6.55;;
21326;SDS011;10822;51.532;6.770;2023-03-01T07:26:37;13.88;;;6.82;;
21326;SDS011;10822;51.532;6.770;2023-03-01T07:29:03;9.00;;;6.25;;
21326;SDS011;10822;51.532;6.770;2023-03-01T07:31:29;9.73;;;6.35;;
21326;SDS011;10822;51.532;6.770;2023-03-01T07:33:55;10.50;;;6.00;;
21326;SDS011;10822;51.532;6.770;2023-03-01T07:36:21;9.75;;;6.68;;
21326;SDS011;10822;51.532;6.770;2023-03-01T07:38:47;9.77;;;6.20;;
21326;SDS011;10822;51.532;6.770;2023-03-01T07:41:13;8.68;;;5.68;;
21326;SDS011;10822;51.532;6.770;2023-03-01T07:43:40;10.45;;;6.30;;
21326;SDS011;10822;51.532;6.770;2023-03-01T07:46:06;8.68;;;6.35;;
21326;SDS011;10822;51.532;6.770;2023-03-01T07:48:32;13.05;;;6.43;;
21326;SDS011;10822;51.532;6.770;2023-03-01T07:50:59;9.55;;;6.07;;
21326;SDS011;10822;51.532;6.770;2023-03-01T07:53:25;9.70;;;5.78;;
21326;SDS011;10822;51.532;6.770;2023-03-01T07:56:12;10.38;;;5.93;;
21326;SDS011;10822;51.532;6.770;2023-03-01T07:58:38;11.60;;;6.13;;
21326;SDS011;10822;51.532;6.770;2023-03-01T08:01:05;8.00;;;5.43;;
21326;SDS011;10822;51.532;6.770;2023-03-01T08:03:32;10.10;;;6.07;;
21326;SDS011;10822;51.532;6.770;2023-03-01T08:06:02;9.60;;;6.30;;
21326;SDS011;10822;51.532;6.770;2023-03-01T08:08:28;7.82;;;5.45;;
21326;SDS011;10822;51.532;6.770;2023-03-01T08:10:57;10.88;;;6.18;;
21326;SDS011;10822;51.532;6.770;2023-03-01T08:13:23;11.23;;;6.15;;
21326;SDS011;10822;51.532;6.770;2023-03-01T08:15:50;8.93;;;6.10;;
21326;SDS011;10822;51.532;6.770;2023-03-01T08:18:16;9.52;;;6.05;;
21326;SDS011;10822;51.532;6.770;2023-03-01T08:20:42;9.65;;;5.85;;
21326;SDS011;10822;51.532;6.770;2023-03-01T08:23:08;8.50;;;5.88;;
21326;SDS011;10822;51.532;6.770;2023-03-01T08:25:34;8.43;;;6.18;;
21326;SDS011;10822;51.532;6.770;2023-03-01T08:28:00;9.10;;;6.00;;
21326;SDS011;10822;51.532;6.770;2023-03-01T08:30:26;11.00;;;6.25;;
21326;SDS011;10822;51.532;6.770;2023-03-01T08:32:52;8.40;;;5.75;;
21326;SDS011;10822;51.532;6.770;2023-03-01T08:35:19;9.80;;;6.25;;
21326;SDS011;10822;51.532;6.770;2023-03-01T08:37:45;7.93;;;5.80;;
21326;SDS011;10822;51.532;6.770;2023-03-01T08:40:11;8.60;;;5.50;;
21326;SDS011;10822;51.532;6.770;2023-03-01T08:42:38;10.70;;;6.20;;
21326;SDS011;10822;51.532;6.770;2023-03-01T08:45:05;10.00;;;5.90;;
21326;SDS011;10822;51.532;6.770;2023-03-01T08:47:31;9.15;;;6.15;;
21326;SDS011;10822;51.532;6.770;2023-03-01T08:49:58;8.27;;;5.93;;
21326;SDS011;10822;51.532;6.770;2023-03-01T08:52:24;9.13;;;5.80;;
21326;SDS011;10822;51.532;6.770;2023-03-01T08:54:51;10.70;;;6.22;;
21326;SDS011;10822;51.532;6.770;2023-03-01T08:57:17;9.13;;;5.75;;
21326;SDS011;10822;51.532;6.770;2023-03-01T08:59:43;8.00;;;5.88;;
21326;SDS011;10822;51.532;6.770;2023-03-01T09:02:11;9.98;;;6.25;;
21326;SDS011;10822;51.532;6.770;2023-03-01T09:04:38;8.07;;;5.78;;
21326;SDS011;10822;51.532;6.770;2023-03-01T09:07:04;7.88;;;5.75;;
21326;SDS011;10822;51.532;6.770;2023-03-01T09:09:30;9.02;;;6.18;;
21326;SDS011;10822;51.532;6.770;2023-03-01T09:11:56;7.40;;;6.03;;
21326;SDS011;10822;51.532;6.770;2023-03-01T09:14:22;6.85;;;5.57;;
21326;SDS011;10822;51.532;6.770;2023-03-01T09:16:48;9.02;;;5.45;;
21326;SDS011;10822;51.532;6.770;2023-03-01T09:19:14;7.50;;;5.82;;
21326;SDS011;10822;51.532;6.770;2023-03-01T09:21:40;7.78;;;5.95;;
21326;SDS011;10822;51.532;6.770;2023-03-01T09:24:13;9.40;;;6.18;;
21326;SDS011;10822;51.532;6.770;2023-03-01T09:26:39;8.75;;;5.95;;
21326;SDS011;10822;51.532;6.770;2023-03-01T09:29:05;8.35;;;6.10;;
21326;SDS011;10822;51.532;6.770;2023-03-01T09:31:31;8.98;;;5.90;;
21326;SDS011;10822;51.532;6.770;2023-03-01T09:33:57;8.15;;;6.03;;
21326;SDS011;10822;51.532;6.770;2023-03-01T09:36:23;8.80;;;5.32;;
21326;SDS011;10822;51.532;6.770;2023-03-01T09:38:53;8.90;;;5.93;;
21326;SDS011;10822;51.532;6.770;2023-03-01T09:44:12;9.18;;;6.20;;
21326;SDS011;10822;51.532;6.770;2023-03-01T09:46:43;8.55;;;5.85;;
21326;SDS011;10822;51.532;6.770;2023-03-01T09:49:20;7.55;;;5.35;;
21326;SDS011;10822;51.532;6.770;2023-03-01T09:51:59;9.02;;;6.00;;
21326;SDS011;10822;51.532;6.770;2023-03-01T09:54:25;7.35;;;5.65;;
21326;SDS011;10822;51.532;6.770;2023-03-01T09:59:26;8.48;;;5.13;;
21326;SDS011;10822;51.532;6.770;2023-03-01T10:01:59;10.13;;;5.85;;
21326;SDS011;10822;51.532;6.770;2023-03-01T10:07:05;11.48;;;5.10;;
21326;SDS011;10822;51.532;6.770;2023-03-01T10:09:33;7.88;;;5.22;;
21326;SDS011;10822;51.532;6.770;2023-03-01T10:11:59;9.80;;;5.80;;
21326;SDS011;10822;51.532;6.770;2023-03-01T10:16:57;7.10;;;4.70;;
21326;SDS011;10822;51.532;6.770;2023-03-01T10:19:27;7.63;;;5.10;;
21326;SDS011;10822;51.532;6.770;2023-03-01T10:21:57;7.80;;;5.18;;
21326;SDS011;10822;51.532;6.770;2023-03-01T10:24:26;7.03;;;5.05;;
21326;SDS011;10822;51.532;6.770;2023-03-01T10:26:54;8.05;;;5.15;;
21326;SDS011;10822;51.532;6.770;2023-03-01T10:29:23;7.45;;;5.15;;
21326;SDS011;10822;51.532;6.770;2023-03-01T10:31:50;10.48;;;5.60;;
21326;SDS011;10822;51.532;6.770;2023-03-01T10:34:22;7.63;;;5.38;;
21326;SDS011;10822;51.532;6.770;2023-03-01T10:36:52;10.00;;;5.40;;
21326;SDS011;10822;51.532;6.770;2023-03-01T10:39:22;12.13;;;5.60;;
21326;SDS011;10822;51.532;6.770;2023-03-01T10:41:52;7.18;;;5.05;;
21326;SDS011;10822;51.532;6.770;2023-03-01T10:45:02;6.60;;;5.20;;
21326;SDS011;10822;51.532;6.770;2023-03-01T10:47:22;7.55;;;4.93;;
21326;SDS011;10822;51.532;6.770;2023-03-01T10:49:54;9.23;;;5.20;;
21326;SDS011;10822;51.532;6.770;2023-03-01T10:52:22;8.43;;;5.32;;
21326;SDS011;10822;51.532;6.770;2023-03-01T10:55:31;7.53;;;5.20;;
21326;SDS011;10822;51.532;6.770;2023-03-01T10:57:38;8.07;;;4.75;;
21326;SDS011;10822;51.532;6.770;2023-03-01T11:02:47;8.05;;;5.07;;
21326;SDS011;10822;51.532;6.770;2023-03-01T11:10:30;9.82;;;5.75;;
21326;SDS011;10822;51.532;6.770;2023-03-01T11:16:07;8.73;;;6.10;;
21326;SDS011;10822;51.532;6.770;2023-03-01T11:18:35;7.07;;;4.63;;
21326;SDS011;10822;51.532;6.770;2023-03-01T11:21:01;7.25;;;4.93;;
21326;SDS011;10822;51.532;6.770;2023-03-01T11:23:28;7.43;;;4.82;;
21326;SDS011;10822;51.532;6.770;2023-03-01T11:25:55;8.15;;;5.25;;
21326;SDS011;10822;51.532;6.770;2023-03-01T11:28:21;6.30;;;4.88;;
21326;SDS011;10822;51.532;6.770;2023-03-01T11:30:52;8.50;;;4.72;;
21326;SDS011;10822;51.532;6.770;2023-03-01T11:33:37;7.30;;;5.10;;
21326;SDS011;10822;51.532;6.770;2023-03-01T11:36:06;7.55;;;4.82;;
21326;SDS011;10822;51.532;6.770;2023-03-01T11:38:34;5.90;;;4.40;;
21326;SDS011;10822;51.532;6.770;2023-03-01T11:49:16;6.25;;;4.47;;
21326;SDS011;10822;51.532;6.770;2023-03-01T11:56:43;8.95;;;4.80;;
21326;SDS011;10822;51.532;6.770;2023-03-01T12:07:02;7.03;;;5.00;;
21326;SDS011;10822;51.532;6.770;2023-03-01T12:14:47;6.93;;;4.43;;
21326;SDS011;10822;51.532;6.770;2023-03-01T12:20:06;7.93;;;5.00;;
21326;SDS011;10822;51.532;6.770;2023-03-01T12:22:52;7.03;;;4.90;;
21326;SDS011;10822;51.532;6.770;2023-03-01T12:25:27;10.32;;;5.15;;
21326;SDS011;10822;51.532;6.770;2023-03-01T12:46:58;6.40;;;4.50;;
21326;SDS011;10822;51.532;6.770;2023-03-01T12:49:30;9.00;;;4.88;;
21326;SDS011;10822;51.532;6.770;2023-03-01T12:51:59;6.03;;;4.70;;
21326;SDS011;10822;51.532;6.770;2023-03-01T12:54:27;6.00;;;4.55;;
21326;SDS011;10822;51.532;6.770;2023-03-01T12:56:54;6.68;;;4.38;;
21326;SDS011;10822;51.532;6.770;2023-03-01T12:59:24;7.22;;;4.40;;
21326;SDS011;10822;51.532;6.770;2023-03-01T13:04:30;6.50;;;4.80;;
21326;SDS011;10822;51.532;6.770;2023-03-01T13:07:10;7.93;;;5.03;;
21326;SDS011;10822;51.532;6.770;2023-03-01T13:12:32;6.78;;;4.38;;
21326;SDS011;10822;51.532;6.770;2023-03-01T13:14:50;9.48;;;5.07;;
21326;SDS011;10822;51.532;6.770;2023-03-01T13:17:33;8.00;;;5.22;;
21326;SDS011;10822;51.532;6.770;2023-03-01T13:20:11;8.05;;;4.97;;
21326;SDS011;10822;51.532;6.770;2023-03-01T13:22:37;7.75;;;4.95;;
21326;SDS011;10822;51.532;6.770;2023-03-01T13:25:14;6.43;;;4.78;;
21326;SDS011;10822;51.532;6.770;2023-03-01T13:27:40;8.30;;;4.93;;
21326;SDS011;10822;51.532;6.770;2023-03-01T13:30:38;6.30;;;4.60;;
21326;SDS011;10822;51.532;6.770;2023-03-01T13:32:52;7.75;;;5.25;;
21326;SDS011;10822;51.532;6.770;2023-03-01T13:35:42;7.60;;;4.95;;
21326;SDS011;10822;51.532;6.770;2023-03-01T13:43:40;6.60;;;4.72;;
21326;SDS011;10822;51.532;6.770;2023-03-01T13:46:09;8.27;;;5.70;;
21326;SDS011;10822;51.532;6.770;2023-03-01T13:48:36;8.55;;;5.05;;
21326;SDS011;10822;51.532;6.770;2023-03-01T13:51:12;7.60;;;4.97;;
21326;SDS011;10822;51.532;6.770;2023-03-01T13:53:42;6.50;;;5.00;;
21326;SDS011;10822;51.532;6.770;2023-03-01T13:56:15;9.05;;;5.70;;
21326;SDS011;10822;51.532;6.770;2023-03-01T13:58:49;9.23;;;5.30;;
21326;SDS011;10822;51.532;6.770;2023-03-01T14:01:26;9.30;;;5.03;;
21326;SDS011;10822;51.532;6.770;2023-03-01T14:03:52;9.80;;;4.88;;
21326;SDS011;10822;51.532;6.770;2023-03-01T14:06:31;7.68;;;4.97;;
21326;SDS011;10822;51.532;6.770;2023-03-01T14:09:05;7.82;;;5.45;;
21326;SDS011;10822;51.532;6.770;2023-03-01T14:19:24;8.35;;;5.30;;
21326;SDS011;10822;51.532;6.770;2023-03-01T14:24:32;9.30;;;5.78;;
21326;SDS011;10822;51.532;6.770;2023-03-01T14:27:01;8.13;;;5.68;;
21326;SDS011;10822;51.532;6.770;2023-03-01T14:29:29;9.27;;;5.63;;
21326;SDS011;10822;51.532;6.770;2023-03-01T14:32:08;8.32;;;6.00;;
21326;SDS011;10822;51.532;6.770;2023-03-01T14:34:34;8.73;;;5.60;;
21326;SDS011;10822;51.532;6.770;2023-03-01T14:37:09;8.27;;;5.28;;
21326;SDS011;10822;51.532;6.770;2023-03-01T14:39:35;9.57;;;6.05;;
21326;SDS011;10822;51.532;6.770;2023-03-01T14:42:03;6.97;;;5.13;;
21326;SDS011;10822;51.532;6.770;2023-03-01T14:44:29;7.80;;;5.47;;
21326;SDS011;10822;51.532;6.770;2023-03-01T14:46:58;7.47;;;5.68;;
21326;SDS011;10822;51.532;6.770;2023-03-01T14:49:28;9.15;;;5.80;;
21326;SDS011;10822;51.532;6.770;2023-03-01T14:52:02;9.25;;;5.53;;
21326;SDS011;10822;51.532;6.770;2023-03-01T14:54:50;9.48;;;6.32;;
21326;SDS011;10822;51.532;6.770;2023-03-01T14:57:18;10.68;;;5.97;;
21326;SDS011;10822;51.532;6.770;2023-03-01T14:59:44;8.52;;;5.72;;
21326;SDS011;10822;51.532;6.770;2023-03-01T15:02:17;8.20;;;5.60;;
21326;SDS011;10822;51.532;6.770;2023-03-01T15:04:49;7.53;;;5.68;;
21326;SDS011;10822;51.532;6.770;2023-03-01T15:07:16;8.32;;;6.20;;
21326;SDS011;10822;51.532;6.770;2023-03-01T15:09:42;8.50;;;5.80;;
21326;SDS011;10822;51.532;6.770;2023-03-01T15:16:11;7.57;;;5.28;;
21326;SDS011;10822;51.532;6.770;2023-03-01T15:18:12;9.40;;;5.78;;
21326;SDS011;10822;51.532;6.770;2023-03-01T15:20:39;7.30;;;5.10;;
21326;SDS011;10822;51.532;6.770;2023-03-01T15:23:05;8.07;;;5.40;;
21326;SDS011;10822;51.532;6.770;2023-03-01T15:25:32;7.28;;;5.00;;
21326;SDS011;10822;51.532;6.770;2023-03-01T15:27:58;7.82;;;5.05;;
21326;SDS011;10822;51.532;6.770;2023-03-01T15:30:30;7.35;;;5.05;;
21326;SDS011;10822;51.532;6.770;2023-03-01T15:33:18;8.27;;;4.85;;
21326;SDS011;10822;51.532;6.770;2023-03-01T15:35:45;6.45;;;4.50;;
21326;SDS011;10822;51.532;6.770;2023-03-01T15:38:26;7.95;;;5.53;;
21326;SDS011;10822;51.532;6.770;2023-03-01T15:40:53;7.72;;;4.65;;
21326;SDS011;10822;51.532;6.770;2023-03-01T15:46:03;7.68;;;4.90;;
21326;SDS011;10822;51.532;6.770;2023-03-01T15:48:29;9.05;;;5.13;;
21326;SDS011;10822;51.532;6.770;2023-03-01T15:50:56;8.20;;;4.88;;
21326;SDS011;10822;51.532;6.770;2023-03-01T15:53:23;8.57;;;4.95;;
21326;SDS011;10822;51.532;6.770;2023-03-01T15:55:49;6.95;;;5.13;;
21326;SDS011;10822;51.532;6.770;2023-03-01T15:58:19;7.57;;;5.25;;
21326;SDS011;10822;51.532;6.770;2023-03-01T16:00:46;7.70;;;4.85;;
21326;SDS011;10822;51.532;6.770;2023-03-01T16:03:13;9.18;;;5.63;;
21326;SDS011;10822;51.532;6.770;2023-03-01T16:05:41;8.60;;;5.22;;
21326;SDS011;10822;51.532;6.770;2023-03-01T16:08:07;10.10;;;5.65;;
21326;SDS011;10822;51.532;6.770;2023-03-01T16:10:34;9.57;;;5.63;;
21326;SDS011;10822;51.532;6.770;2023-03-01T16:13:00;7.82;;;5.43;;
21326;SDS011;10822;51.532;6.770;2023-03-01T16:15:27;9.20;;;6.03;;
21326;SDS011;10822;51.532;6.770;2023-03-01T16:17:54;7.88;;;5.20;;
21326;SDS011;10822;51.532;6.770;2023-03-01T16:20:20;7.07;;;5.07;;
21326;SDS011;10822;51.532;6.770;2023-03-01T16:22:46;8.43;;;5.28;;
21326;SDS011;10822;51.532;6.770;2023-03-01T16:25:13;8.73;;;5.60;;
21326;SDS011;10822;51.532;6.770;2023-03-01T16:27:41;7.15;;;5.03;;
21326;SDS011;10822;51.532;6.770;2023-03-01T16:30:08;9.57;;;5.70;;
21326;SDS011;10822;51.532;6.770;2023-03-01T16:32:37;7.88;;;5.00;;
21326;SDS011;10822;51.532;6.770;2023-03-01T16:35:03;7.90;;;5.57;;
21326;SDS011;10822;51.532;6.770;2023-03-01T16:37:31;8.23;;;5.47;;